sensor_id;sensor_type;location;lat;lon;timestamp;temperature;humidity
21682;DHT22;11002;48.256;10.084;2023-08-21T00:00:43;21.30;69.30
21682;DHT22;11002;48.256;10.084;2023-08-21T00:03:11;21.20;69.30
21682;DHT22;11002;48.256;10.084;2023-08-21T00:05:38;21.20;70.20
21682;DHT22;11002;48.256;10.084;2023-08-21T00:08:05;21.20;70.40
21682;DHT22;11002;48.256;10.084;2023-08-21T00:10:32;21.20;70.10
21682;DHT22;11002;48.256;10.084;2023-08-21T00:13:01;21.20;70.20
21682;DHT22;11002;48.256;10.084;2023-08-21T00:15:28;21.20;70.30
21682;DHT22;11002;48.256;10.084;2023-08-21T00:17:55;21.20;70.60
21682;DHT22;11002;48.256;10.084;2023-08-21T00:20:23;21.20;70.80
21682;DHT22;11002;48.256;10.084;2023-08-21T00:22:50;21.20;70.90
21682;DHT22;11002;48.256;10.084;2023-08-21T00:25:18;21.20;71.00
21682;DHT22;11002;48.256;10.084;2023-08-21T00:27:45;21.20;71.20
21682;DHT22;11002;48.256;10.084;2023-08-21T00:30:13;21.10;71.30
21682;DHT22;11002;48.256;10.084;2023-08-21T00:32:42;21.10;71.70
21682;DHT22;11002;48.256;10.084;2023-08-21T00:35:09;21.10;72.00
21682;DHT22;11002;48.256;10.084;2023-08-21T00:37:36;21.10;72.40
21682;DHT22;11002;48.256;10.084;2023-08-21T00:40:05;21.10;72.60
21682;DHT22;11002;48.256;10.084;2023-08-21T00:42:32;21.10;72.80
21682;DHT22;11002;48.256;10.084;2023-08-21T00:45:00;21.10;73.10
21682;DHT22;11002;48.256;10.084;2023-08-21T00:47:29;21.10;73.60
21682;DHT22;11002;48.256;10.084;2023-08-21T00:49:56;21.00;73.80
21682;DHT22;11002;48.256;10.084;2023-08-21T00:52:24;21.00;74.40
21682;DHT22;11002;48.256;10.084;2023-08-21T00:54:51;20.90;74.90
21682;DHT22;11002;48.256;10.084;2023-08-21T00:57:19;20.90;75.30
21682;DHT22;11002;48.256;10.084;2023-08-21T00:59:47;20.90;75.70
21682;DHT22;11002;48.256;10.084;2023-08-21T01:02:15;20.90;75.80
21682;DHT22;11002;48.256;10.084;2023-08-21T01:04:44;20.90;75.70
21682;DHT22;11002;48.256;10.084;2023-08-21T01:07:13;20.90;75.10
21682;DHT22;11002;48.256;10.084;2023-08-21T01:09:46;20.90;75.10
21682;DHT22;11002;48.256;10.084;2023-08-21T01:12:23;20.90;75.40
21682;DHT22;11002;48.256;10.084;2023-08-21T01:14:58;20.80;75.70
21682;DHT22;11002;48.256;10.084;2023-08-21T01:17:25;20.80;75.70
21682;DHT22;11002;48.256;10.084;2023-08-21T01:19:55;20.80;75.70
21682;DHT22;11002;48.256;10.084;2023-08-21T01:22:26;20.70;75.60
21682;DHT22;11002;48.256;10.084;2023-08-21T01:24:55;20.70;75.60
21682;DHT22;11002;48.256;10.084;2023-08-21T01:27:22;20.70;75.60
21682;DHT22;11002;48.256;10.084;2023-08-21T01:29:49;20.60;75.50
21682;DHT22;11002;48.256;10.084;2023-08-21T01:32:23;20.60;75.50
21682;DHT22;11002;48.256;10.084;2023-08-21T01:34:55;20.50;75.40
21682;DHT22;11002;48.256;10.084;2023-08-21T01:37:24;20.50;75.40
21682;DHT22;11002;48.256;10.084;2023-08-21T01:39:51;20.50;75.40
21682;DHT22;11002;48.256;10.084;2023-08-21T01:42:20;20.50;76.10
21682;DHT22;11002;48.256;10.084;2023-08-21T01:44:48;20.50;77.20
21682;DHT22;11002;48.256;10.084;2023-08-21T01:47:15;20.50;77.50
21682;DHT22;11002;48.256;10.084;2023-08-21T01:49:42;20.50;77.30
21682;DHT22;11002;48.256;10.084;2023-08-21T01:52:10;20.50;77.50
21682;DHT22;11002;48.256;10.084;2023-08-21T01:54:37;20.40;77.50
21682;DHT22;11002;48.256;10.084;2023-08-21T01:57:04;20.40;77.70
21682;DHT22;11002;48.256;10.084;2023-08-21T01:59:33;20.40;77.70
21682;DHT22;11002;48.256;10.084;2023-08-21T02:02:00;20.40;77.90
21682;DHT22;11002;48.256;10.084;2023-08-21T02:04:27;20.40;77.80
21682;DHT22;11002;48.256;10.084;2023-08-21T02:06:55;20.40;77.80
21682;DHT22;11002;48.256;10.084;2023-08-21T02:09:22;20.40;77.80
21682;DHT22;11002;48.256;10.084;2023-08-21T02:11:49;20.40;78.00
21682;DHT22;11002;48.256;10.084;2023-08-21T02:14:16;20.30;78.00
21682;DHT22;11002;48.256;10.084;2023-08-21T02:16:46;20.30;78.30
21682;DHT22;11002;48.256;10.084;2023-08-21T02:19:13;20.20;78.40
21682;DHT22;11002;48.256;10.084;2023-08-21T02:21:40;20.20;78.80
21682;DHT22;11002;48.256;10.084;2023-08-21T02:24:07;20.20;79.00
21682;DHT22;11002;48.256;10.084;2023-08-21T02:26:35;20.20;79.20
21682;DHT22;11002;48.256;10.084;2023-08-21T02:29:02;20.10;79.60
21682;DHT22;11002;48.256;10.084;2023-08-21T02:31:30;20.10;80.10
21682;DHT22;11002;48.256;10.084;2023-08-21T02:33:59;20.20;80.60
21682;DHT22;11002;48.256;10.084;2023-08-21T02:36:26;20.10;80.60
21682;DHT22;11002;48.256;10.084;2023-08-21T02:38:55;20.10;81.50
21682;DHT22;11002;48.256;10.084;2023-08-21T02:41:22;20.10;80.80
21682;DHT22;11002;48.256;10.084;2023-08-21T02:43:50;20.10;81.40
21682;DHT22;11002;48.256;10.084;2023-08-21T02:46:17;20.00;81.60
21682;DHT22;11002;48.256;10.084;2023-08-21T02:48:44;20.00;81.60
21682;DHT22;11002;48.256;10.084;2023-08-21T02:51:13;20.00;81.60
21682;DHT22;11002;48.256;10.084;2023-08-21T02:53:40;20.00;81.60
21682;DHT22;11002;48.256;10.084;2023-08-21T02:56:07;20.00;81.60
21682;DHT22;11002;48.256;10.084;2023-08-21T02:58:34;19.90;81.50
21682;DHT22;11002;48.256;10.084;2023-08-21T03:01:02;19.90;81.50
21682;DHT22;11002;48.256;10.084;2023-08-21T03:03:29;19.90;81.50
21682;DHT22;11002;48.256;10.084;2023-08-21T03:05:58;19.90;81.50
21682;DHT22;11002;48.256;10.084;2023-08-21T03:08:27;19.90;81.50
21682;DHT22;11002;48.256;10.084;2023-08-21T03:10:54;19.80;81.80
21682;DHT22;11002;48.256;10.084;2023-08-21T03:13:21;19.80;81.90
21682;DHT22;11002;48.256;10.084;2023-08-21T03:15:49;19.80;82.00
21682;DHT22;11002;48.256;10.084;2023-08-21T03:18:16;19.80;82.10
21682;DHT22;11002;48.256;10.084;2023-08-21T03:20:44;19.80;82.10
21682;DHT22;11002;48.256;10.084;2023-08-21T03:23:12;19.80;82.50
21682;DHT22;11002;48.256;10.084;2023-08-21T03:25:42;19.70;82.60
21682;DHT22;11002;48.256;10.084;2023-08-21T03:28:09;19.70;82.40
21682;DHT22;11002;48.256;10.084;2023-08-21T03:30:39;19.60;82.80
21682;DHT22;11002;48.256;10.084;2023-08-21T03:33:06;19.60;83.20
21682;DHT22;11002;48.256;10.084;2023-08-21T03:35:34;19.60;83.30
21682;DHT22;11002;48.256;10.084;2023-08-21T03:38:02;19.60;83.30
21682;DHT22;11002;48.256;10.084;2023-08-21T03:40:34;19.60;83.70
21682;DHT22;11002;48.256;10.084;2023-08-21T03:43:03;19.60;83.80
21682;DHT22;11002;48.256;10.084;2023-08-21T03:45:30;19.60;83.80
21682;DHT22;11002;48.256;10.084;2023-08-21T03:47:57;19.50;83.70
21682;DHT22;11002;48.256;10.084;2023-08-21T03:50:25;19.50;83.60
21682;DHT22;11002;48.256;10.084;2023-08-21T03:52:52;19.50;83.70
21682;DHT22;11002;48.256;10.084;2023-08-21T03:55:19;19.50;83.80
21682;DHT22;11002;48.256;10.084;2023-08-21T03:57:46;19.50;83.80
21682;DHT22;11002;48.256;10.084;2023-08-21T04:00:15;19.50;83.70
21682;DHT22;11002;48.256;10.084;2023-08-21T04:02:42;19.40;83.50
21682;DHT22;11002;48.256;10.084;2023-08-21T04:05:10;19.40;83.50
21682;DHT22;11002;48.256;10.084;2023-08-21T04:07:38;19.40;83.40
21682;DHT22;11002;48.256;10.084;2023-08-21T04:10:06;19.40;83.40
21682;DHT22;11002;48.256;10.084;2023-08-21T04:12:33;19.40;83.50
21682;DHT22;11002;48.256;10.084;2023-08-21T04:15:00;19.30;83.50
21682;DHT22;11002;48.256;10.084;2023-08-21T04:17:31;19.30;83.80
21682;DHT22;11002;48.256;10.084;2023-08-21T04:19:58;19.30;83.90
21682;DHT22;11002;48.256;10.084;2023-08-21T04:22:26;19.30;84.70
21682;DHT22;11002;48.256;10.084;2023-08-21T04:24:53;19.30;85.00
21682;DHT22;11002;48.256;10.084;2023-08-21T04:27:20;19.20;85.20
21682;DHT22;11002;48.256;10.084;2023-08-21T04:29:47;19.20;85.40
21682;DHT22;11002;48.256;10.084;2023-08-21T04:32:15;19.20;86.30
21682;DHT22;11002;48.256;10.084;2023-08-21T04:34:45;19.20;87.40
21682;DHT22;11002;48.256;10.084;2023-08-21T04:37:13;19.20;87.40
21682;DHT22;11002;48.256;10.084;2023-08-21T04:39:40;19.10;87.30
21682;DHT22;11002;48.256;10.084;2023-08-21T04:42:08;19.10;87.30
21682;DHT22;11002;48.256;10.084;2023-08-21T04:44:36;19.10;87.30
21682;DHT22;11002;48.256;10.084;2023-08-21T04:47:20;19.10;87.30
21682;DHT22;11002;48.256;10.084;2023-08-21T04:49:50;19.10;87.30
21682;DHT22;11002;48.256;10.084;2023-08-21T04:52:18;19.10;87.30
21682;DHT22;11002;48.256;10.084;2023-08-21T04:54:46;19.20;87.40
21682;DHT22;11002;48.256;10.084;2023-08-21T04:57:15;19.20;87.40
21682;DHT22;11002;48.256;10.084;2023-08-21T04:59:44;19.10;87.30
21682;DHT22;11002;48.256;10.084;2023-08-21T05:02:11;19.20;87.40
21682;DHT22;11002;48.256;10.084;2023-08-21T05:04:39;19.20;87.40
21682;DHT22;11002;48.256;10.084;2023-08-21T05:07:09;19.20;87.40
21682;DHT22;11002;48.256;10.084;2023-08-21T05:09:37;19.30;87.50
21682;DHT22;11002;48.256;10.084;2023-08-21T05:12:05;19.30;87.50
21682;DHT22;11002;48.256;10.084;2023-08-21T05:14:33;19.30;87.50
21682;DHT22;11002;48.256;10.084;2023-08-21T05:17:00;19.30;87.50
21682;DHT22;11002;48.256;10.084;2023-08-21T05:19:28;19.40;87.60
21682;DHT22;11002;48.256;10.084;2023-08-21T05:21:56;19.50;87.30
21682;DHT22;11002;48.256;10.084;2023-08-21T05:24:25;19.50;86.50
21682;DHT22;11002;48.256;10.084;2023-08-21T05:27:00;19.60;86.00
21682;DHT22;11002;48.256;10.084;2023-08-21T05:29:27;19.60;85.70
21682;DHT22;11002;48.256;10.084;2023-08-21T05:31:57;19.70;85.10
21682;DHT22;11002;48.256;10.084;2023-08-21T05:34:24;19.80;84.70
21682;DHT22;11002;48.256;10.084;2023-08-21T05:36:52;19.90;84.40
21682;DHT22;11002;48.256;10.084;2023-08-21T05:39:20;19.90;83.80
21682;DHT22;11002;48.256;10.084;2023-08-21T05:41:50;20.10;82.90
21682;DHT22;11002;48.256;10.084;2023-08-21T05:44:19;20.20;81.90
21682;DHT22;11002;48.256;10.084;2023-08-21T05:46:46;20.30;81.90
21682;DHT22;11002;48.256;10.084;2023-08-21T05:49:13;20.40;82.10
21682;DHT22;11002;48.256;10.084;2023-08-21T05:51:41;20.60;79.90
21682;DHT22;11002;48.256;10.084;2023-08-21T05:54:08;20.80;77.80
21682;DHT22;11002;48.256;10.084;2023-08-21T05:56:38;21.00;75.90
21682;DHT22;11002;48.256;10.084;2023-08-21T05:59:10;21.20;74.90
21682;DHT22;11002;48.256;10.084;2023-08-21T06:01:37;21.30;72.50
21682;DHT22;11002;48.256;10.084;2023-08-21T06:04:05;21.40;70.90
21682;DHT22;11002;48.256;10.084;2023-08-21T06:06:40;21.40;69.80
21682;DHT22;11002;48.256;10.084;2023-08-21T06:09:08;21.50;69.50
21682;DHT22;11002;48.256;10.084;2023-08-21T06:11:35;21.40;70.20
21682;DHT22;11002;48.256;10.084;2023-08-21T06:14:06;21.40;71.10
21682;DHT22;11002;48.256;10.084;2023-08-21T06:16:34;21.40;71.10
21682;DHT22;11002;48.256;10.084;2023-08-21T06:19:01;21.40;71.00
21682;DHT22;11002;48.256;10.084;2023-08-21T06:21:28;21.40;70.90
21682;DHT22;11002;48.256;10.084;2023-08-21T06:23:55;21.50;71.10
21682;DHT22;11002;48.256;10.084;2023-08-21T06:26:23;21.50;71.40
21682;DHT22;11002;48.256;10.084;2023-08-21T06:28:51;21.60;71.30
21682;DHT22;11002;48.256;10.084;2023-08-21T06:31:20;21.60;72.00
21682;DHT22;11002;48.256;10.084;2023-08-21T06:33:47;21.60;72.50
21682;DHT22;11002;48.256;10.084;2023-08-21T06:36:14;21.60;73.20
21682;DHT22;11002;48.256;10.084;2023-08-21T06:38:42;21.70;73.80
21682;DHT22;11002;48.256;10.084;2023-08-21T06:41:10;21.80;73.30
21682;DHT22;11002;48.256;10.084;2023-08-21T06:43:37;21.90;72.90
21682;DHT22;11002;48.256;10.084;2023-08-21T06:46:05;21.90;72.70
21682;DHT22;11002;48.256;10.084;2023-08-21T06:48:34;22.00;72.30
21682;DHT22;11002;48.256;10.084;2023-08-21T06:51:02;22.10;72.70
21682;DHT22;11002;48.256;10.084;2023-08-21T06:53:29;22.10;72.40
21682;DHT22;11002;48.256;10.084;2023-08-21T06:55:56;22.20;72.50
21682;DHT22;11002;48.256;10.084;2023-08-21T06:58:24;22.30;72.10
21682;DHT22;11002;48.256;10.084;2023-08-21T07:00:53;22.30;71.60
21682;DHT22;11002;48.256;10.084;2023-08-21T07:03:21;22.50;71.10
21682;DHT22;11002;48.256;10.084;2023-08-21T07:05:55;22.70;70.10
21682;DHT22;11002;48.256;10.084;2023-08-21T07:08:23;22.90;68.20
21682;DHT22;11002;48.256;10.084;2023-08-21T07:10:50;23.00;67.50
21682;DHT22;11002;48.256;10.084;2023-08-21T07:13:18;23.00;67.30
21682;DHT22;11002;48.256;10.084;2023-08-21T07:15:45;23.10;67.50
21682;DHT22;11002;48.256;10.084;2023-08-21T07:18:13;23.40;65.40
21682;DHT22;11002;48.256;10.084;2023-08-21T07:20:40;23.50;64.50
21682;DHT22;11002;48.256;10.084;2023-08-21T07:23:09;23.60;64.60
21682;DHT22;11002;48.256;10.084;2023-08-21T07:25:36;23.50;64.40
21682;DHT22;11002;48.256;10.084;2023-08-21T07:28:04;23.60;64.50
21682;DHT22;11002;48.256;10.084;2023-08-21T07:30:31;23.60;64.50
21682;DHT22;11002;48.256;10.084;2023-08-21T07:32:59;23.70;64.70
21682;DHT22;11002;48.256;10.084;2023-08-21T07:35:26;23.80;64.70
21682;DHT22;11002;48.256;10.084;2023-08-21T07:37:53;23.90;64.70
21682;DHT22;11002;48.256;10.084;2023-08-21T07:40:22;23.90;64.40
21682;DHT22;11002;48.256;10.084;2023-08-21T07:42:49;24.10;63.40
21682;DHT22;11002;48.256;10.084;2023-08-21T07:45:16;24.10;61.40
21682;DHT22;11002;48.256;10.084;2023-08-21T07:47:44;24.10;59.90
21682;DHT22;11002;48.256;10.084;2023-08-21T07:50:11;24.20;59.80
21682;DHT22;11002;48.256;10.084;2023-08-21T07:52:40;24.30;59.60
21682;DHT22;11002;48.256;10.084;2023-08-21T07:55:08;24.50;58.80
21682;DHT22;11002;48.256;10.084;2023-08-21T07:57:36;24.70;58.70
21682;DHT22;11002;48.256;10.084;2023-08-21T08:00:04;24.80;58.80
21682;DHT22;11002;48.256;10.084;2023-08-21T08:02:39;24.90;57.90
21682;DHT22;11002;48.256;10.084;2023-08-21T08:05:07;25.00;57.30
21682;DHT22;11002;48.256;10.084;2023-08-21T08:07:35;25.10;55.70
21682;DHT22;11002;48.256;10.084;2023-08-21T08:10:02;25.20;55.60
21682;DHT22;11002;48.256;10.084;2023-08-21T08:12:29;25.30;55.40
21682;DHT22;11002;48.256;10.084;2023-08-21T08:15:00;25.50;55.20
21682;DHT22;11002;48.256;10.084;2023-08-21T08:17:27;25.60;54.40
21682;DHT22;11002;48.256;10.084;2023-08-21T08:19:55;25.80;53.40
21682;DHT22;11002;48.256;10.084;2023-08-21T08:22:22;25.80;53.10
21682;DHT22;11002;48.256;10.084;2023-08-21T08:24:49;25.80;53.10
21682;DHT22;11002;48.256;10.084;2023-08-21T08:27:16;25.80;53.10
21682;DHT22;11002;48.256;10.084;2023-08-21T08:29:44;25.90;53.10
21682;DHT22;11002;48.256;10.084;2023-08-21T08:32:12;26.00;53.20
21682;DHT22;11002;48.256;10.084;2023-08-21T08:34:40;26.10;51.20
21682;DHT22;11002;48.256;10.084;2023-08-21T08:37:07;26.20;51.00
21682;DHT22;11002;48.256;10.084;2023-08-21T08:39:34;26.40;50.10
21682;DHT22;11002;48.256;10.084;2023-08-21T08:42:03;26.60;50.90
21682;DHT22;11002;48.256;10.084;2023-08-21T08:44:35;26.80;48.50
21682;DHT22;11002;48.256;10.084;2023-08-21T08:47:03;27.10;49.20
21682;DHT22;11002;48.256;10.084;2023-08-21T08:49:32;27.40;48.10
21682;DHT22;11002;48.256;10.084;2023-08-21T08:51:59;27.60;46.40
21682;DHT22;11002;48.256;10.084;2023-08-21T08:54:29;27.70;44.60
21682;DHT22;11002;48.256;10.084;2023-08-21T08:56:57;27.80;41.90
21682;DHT22;11002;48.256;10.084;2023-08-21T08:59:24;28.00;41.40
21682;DHT22;11002;48.256;10.084;2023-08-21T09:01:52;28.10;41.40
21682;DHT22;11002;48.256;10.084;2023-08-21T09:04:19;28.40;38.60
21682;DHT22;11002;48.256;10.084;2023-08-21T09:06:49;28.70;41.70
21682;DHT22;11002;48.256;10.084;2023-08-21T09:09:16;29.10;40.10
21682;DHT22;11002;48.256;10.084;2023-08-21T09:11:45;29.50;36.90
21682;DHT22;11002;48.256;10.084;2023-08-21T09:14:12;30.00;34.80
21682;DHT22;11002;48.256;10.084;2023-08-21T09:16:58;30.60;33.20
21682;DHT22;11002;48.256;10.084;2023-08-21T09:19:26;31.60;30.00
21682;DHT22;11002;48.256;10.084;2023-08-21T09:21:55;32.40;26.90
21682;DHT22;11002;48.256;10.084;2023-08-21T09:24:22;33.30;25.70
21682;DHT22;11002;48.256;10.084;2023-08-21T09:26:50;33.80;21.50
21682;DHT22;11002;48.256;10.084;2023-08-21T09:29:17;34.30;20.40
21682;DHT22;11002;48.256;10.084;2023-08-21T09:31:46;34.40;19.40
21682;DHT22;11002;48.256;10.084;2023-08-21T09:34:13;34.80;17.30
21682;DHT22;11002;48.256;10.084;2023-08-21T09:36:40;35.30;16.90
21682;DHT22;11002;48.256;10.084;2023-08-21T09:39:15;35.90;15.10
21682;DHT22;11002;48.256;10.084;2023-08-21T09:41:55;36.30;13.10
21682;DHT22;11002;48.256;10.084;2023-08-21T09:44:22;36.30;12.70
21682;DHT22;11002;48.256;10.084;2023-08-21T09:46:49;36.60;12.10
21682;DHT22;11002;48.256;10.084;2023-08-21T09:49:17;36.90;12.10
21682;DHT22;11002;48.256;10.084;2023-08-21T09:51:46;37.20;12.80
21682;DHT22;11002;48.256;10.084;2023-08-21T09:54:15;37.20;10.40
21682;DHT22;11002;48.256;10.084;2023-08-21T09:56:42;36.90;11.40
21682;DHT22;11002;48.256;10.084;2023-08-21T09:59:11;36.80;10.90
21682;DHT22;11002;48.256;10.084;2023-08-21T10:01:38;36.30;13.80
21682;DHT22;11002;48.256;10.084;2023-08-21T10:04:08;36.00;13.20
21682;DHT22;11002;48.256;10.084;2023-08-21T10:06:38;35.60;14.50
21682;DHT22;11002;48.256;10.084;2023-08-21T10:09:06;35.10;15.10
21682;DHT22;11002;48.256;10.084;2023-08-21T10:11:35;35.00;15.40
21682;DHT22;11002;48.256;10.084;2023-08-21T10:14:03;35.00;15.10
21682;DHT22;11002;48.256;10.084;2023-08-21T10:16:31;35.30;15.70
21682;DHT22;11002;48.256;10.084;2023-08-21T10:19:03;35.20;14.20
21682;DHT22;11002;48.256;10.084;2023-08-21T10:21:35;35.20;14.50
21682;DHT22;11002;48.256;10.084;2023-08-21T10:24:03;35.20;15.20
21682;DHT22;11002;48.256;10.084;2023-08-21T10:26:30;35.10;15.00
21682;DHT22;11002;48.256;10.084;2023-08-21T10:29:01;34.80;13.30
21682;DHT22;11002;48.256;10.084;2023-08-21T10:31:35;34.90;15.10
21682;DHT22;11002;48.256;10.084;2023-08-21T10:34:04;35.30;15.20
21682;DHT22;11002;48.256;10.084;2023-08-21T10:37:05;35.50;16.00
21682;DHT22;11002;48.256;10.084;2023-08-21T10:39:33;35.70;15.90
21682;DHT22;11002;48.256;10.084;2023-08-21T10:42:06;35.80;16.70
21682;DHT22;11002;48.256;10.084;2023-08-21T10:47:31;35.40;15.10
21682;DHT22;11002;48.256;10.084;2023-08-21T10:50:00;35.00;14.50
21682;DHT22;11002;48.256;10.084;2023-08-21T10:52:28;34.70;14.60
21682;DHT22;11002;48.256;10.084;2023-08-21T10:54:57;34.80;14.40
21682;DHT22;11002;48.256;10.084;2023-08-21T10:57:25;34.90;12.90
21682;DHT22;11002;48.256;10.084;2023-08-21T10:59:56;35.10;14.30
21682;DHT22;11002;48.256;10.084;2023-08-21T11:02:24;35.40;14.90
21682;DHT22;11002;48.256;10.084;2023-08-21T11:04:52;35.30;13.40
21682;DHT22;11002;48.256;10.084;2023-08-21T11:07:19;35.20;13.30
21682;DHT22;11002;48.256;10.084;2023-08-21T11:09:47;35.40;12.30
21682;DHT22;11002;48.256;10.084;2023-08-21T11:12:16;35.70;12.10
21682;DHT22;11002;48.256;10.084;2023-08-21T11:14:44;36.20;11.60
21682;DHT22;11002;48.256;10.084;2023-08-21T11:17:13;36.30;10.10
21682;DHT22;11002;48.256;10.084;2023-08-21T11:19:41;36.20;12.40
21682;DHT22;11002;48.256;10.084;2023-08-21T11:22:09;36.00;13.60
21682;DHT22;11002;48.256;10.084;2023-08-21T11:24:40;35.80;13.80
21682;DHT22;11002;48.256;10.084;2023-08-21T11:27:09;36.10;15.20
21682;DHT22;11002;48.256;10.084;2023-08-21T11:29:39;36.20;12.20
21682;DHT22;11002;48.256;10.084;2023-08-21T11:32:10;36.20;13.40
21682;DHT22;11002;48.256;10.084;2023-08-21T11:34:40;35.90;11.60
21682;DHT22;11002;48.256;10.084;2023-08-21T11:37:08;35.90;12.40
21682;DHT22;11002;48.256;10.084;2023-08-21T11:39:41;36.10;11.40
21682;DHT22;11002;48.256;10.084;2023-08-21T11:42:12;36.50;11.20
21682;DHT22;11002;48.256;10.084;2023-08-21T11:44:44;36.80;11.90
21682;DHT22;11002;48.256;10.084;2023-08-21T11:47:12;36.80;12.20
21682;DHT22;11002;48.256;10.084;2023-08-21T11:49:42;36.50;13.10
21682;DHT22;11002;48.256;10.084;2023-08-21T11:52:10;36.50;13.50
21682;DHT22;11002;48.256;10.084;2023-08-21T11:54:38;36.60;13.70
21682;DHT22;11002;48.256;10.084;2023-08-21T11:57:07;36.60;13.50
21682;DHT22;11002;48.256;10.084;2023-08-21T11:59:35;36.50;12.20
21682;DHT22;11002;48.256;10.084;2023-08-21T12:02:14;36.90;11.70
21682;DHT22;11002;48.256;10.084;2023-08-21T12:04:43;37.10;10.30
21682;DHT22;11002;48.256;10.084;2023-08-21T12:07:11;37.00;10.30
21682;DHT22;11002;48.256;10.084;2023-08-21T12:09:39;36.50;10.50
21682;DHT22;11002;48.256;10.084;2023-08-21T12:12:07;36.80;11.90
21682;DHT22;11002;48.256;10.084;2023-08-21T12:14:34;37.00;10.30
21682;DHT22;11002;48.256;10.084;2023-08-21T12:17:05;37.20;10.40
21682;DHT22;11002;48.256;10.084;2023-08-21T12:19:33;37.40;10.50
21682;DHT22;11002;48.256;10.084;2023-08-21T12:22:02;37.60;10.60
21682;DHT22;11002;48.256;10.084;2023-08-21T12:24:29;37.70;10.50
21682;DHT22;11002;48.256;10.084;2023-08-21T12:26:56;37.60;10.60
21682;DHT22;11002;48.256;10.084;2023-08-21T12:29:23;37.60;10.60
21682;DHT22;11002;48.256;10.084;2023-08-21T12:31:51;37.70;10.60
21682;DHT22;11002;48.256;10.084;2023-08-21T12:34:18;37.40;9.30
21682;DHT22;11002;48.256;10.084;2023-08-21T12:36:46;37.40;10.50
21682;DHT22;11002;48.256;10.084;2023-08-21T12:39:14;37.50;10.60
21682;DHT22;11002;48.256;10.084;2023-08-21T12:41:42;37.60;10.60
21682;DHT22;11002;48.256;10.084;2023-08-21T12:44:09;37.50;10.50
21682;DHT22;11002;48.256;10.084;2023-08-21T12:46:36;37.40;10.50
21682;DHT22;11002;48.256;10.084;2023-08-21T12:49:04;37.30;10.40
21682;DHT22;11002;48.256;10.084;2023-08-21T12:51:31;37.30;10.40
21682;DHT22;11002;48.256;10.084;2023-08-21T12:53:58;37.00;10.30
21682;DHT22;11002;48.256;10.084;2023-08-21T12:56:27;36.80;10.80
21682;DHT22;11002;48.256;10.084;2023-08-21T12:58:54;36.70;10.10
21682;DHT22;11002;48.256;10.084;2023-08-21T13:01:21;36.60;10.10
21682;DHT22;11002;48.256;10.084;2023-08-21T13:03:48;36.40;10.00
21682;DHT22;11002;48.256;10.084;2023-08-21T13:06:16;36.20;9.90
21682;DHT22;11002;48.256;10.084;2023-08-21T13:08:43;36.00;9.80
21682;DHT22;11002;48.256;10.084;2023-08-21T13:11:10;35.80;9.70
21682;DHT22;11002;48.256;10.084;2023-08-21T13:13:39;35.60;10.80
21682;DHT22;11002;48.256;10.084;2023-08-21T13:16:06;35.30;11.80
21682;DHT22;11002;48.256;10.084;2023-08-21T13:18:33;35.20;10.30
21682;DHT22;11002;48.256;10.084;2023-08-21T13:21:01;35.10;12.60
21682;DHT22;11002;48.256;10.084;2023-08-21T13:23:29;35.00;11.70
21682;DHT22;11002;48.256;10.084;2023-08-21T13:25:57;35.00;12.70
21682;DHT22;11002;48.256;10.084;2023-08-21T13:28:24;34.90;10.60
21682;DHT22;11002;48.256;10.084;2023-08-21T13:30:53;34.70;11.10
21682;DHT22;11002;48.256;10.084;2023-08-21T13:33:20;34.60;10.80
21682;DHT22;11002;48.256;10.084;2023-08-21T13:35:48;34.50;11.20
21682;DHT22;11002;48.256;10.084;2023-08-21T13:38:15;34.50;12.80
21682;DHT22;11002;48.256;10.084;2023-08-21T13:40:43;34.50;13.40
21682;DHT22;11002;48.256;10.084;2023-08-21T13:43:10;34.50;14.80
21682;DHT22;11002;48.256;10.084;2023-08-21T13:45:38;34.40;14.60
21682;DHT22;11002;48.256;10.084;2023-08-21T13:48:07;34.30;15.10
21682;DHT22;11002;48.256;10.084;2023-08-21T13:50:34;34.20;15.30
21682;DHT22;11002;48.256;10.084;2023-08-21T13:53:02;34.20;15.40
21682;DHT22;11002;48.256;10.084;2023-08-21T13:55:29;34.20;14.90
21682;DHT22;11002;48.256;10.084;2023-08-21T13:57:56;34.20;14.00
21682;DHT22;11002;48.256;10.084;2023-08-21T14:00:24;34.00;15.60
21682;DHT22;11002;48.256;10.084;2023-08-21T14:02:51;33.80;14.90
21682;DHT22;11002;48.256;10.084;2023-08-21T14:05:20;33.70;16.40
21682;DHT22;11002;48.256;10.084;2023-08-21T14:07:48;33.70;18.60
21682;DHT22;11002;48.256;10.084;2023-08-21T14:10:15;33.60;19.50
21682;DHT22;11002;48.256;10.084;2023-08-21T14:12:42;33.60;18.90
21682;DHT22;11002;48.256;10.084;2023-08-21T14:15:10;33.50;20.00
21682;DHT22;11002;48.256;10.084;2023-08-21T14:17:38;33.50;20.00
21682;DHT22;11002;48.256;10.084;2023-08-21T14:20:06;33.40;20.00
21682;DHT22;11002;48.256;10.084;2023-08-21T14:22:35;33.30;19.90
21682;DHT22;11002;48.256;10.084;2023-08-21T14:25:03;33.10;16.90
21682;DHT22;11002;48.256;10.084;2023-08-21T14:27:31;33.00;18.90
21682;DHT22;11002;48.256;10.084;2023-08-21T14:29:59;32.90;19.70
21682;DHT22;11002;48.256;10.084;2023-08-21T14:32:26;32.90;19.70
21682;DHT22;11002;48.256;10.084;2023-08-21T14:34:54;32.90;18.30
21682;DHT22;11002;48.256;10.084;2023-08-21T14:37:21;32.70;19.60
21682;DHT22;11002;48.256;10.084;2023-08-21T14:39:51;32.60;19.60
21682;DHT22;11002;48.256;10.084;2023-08-21T14:42:18;32.60;19.60
21682;DHT22;11002;48.256;10.084;2023-08-21T14:44:45;32.60;19.60
21682;DHT22;11002;48.256;10.084;2023-08-21T14:47:13;32.50;19.70
21682;DHT22;11002;48.256;10.084;2023-08-21T14:49:40;32.50;20.30
21682;DHT22;11002;48.256;10.084;2023-08-21T14:52:07;32.50;21.90
21682;DHT22;11002;48.256;10.084;2023-08-21T14:54:35;32.40;22.80
21682;DHT22;11002;48.256;10.084;2023-08-21T14:57:04;32.30;22.80
21682;DHT22;11002;48.256;10.084;2023-08-21T14:59:34;32.20;22.80
21682;DHT22;11002;48.256;10.084;2023-08-21T15:02:01;32.10;22.20
21682;DHT22;11002;48.256;10.084;2023-08-21T15:04:28;32.10;23.10
21682;DHT22;11002;48.256;10.084;2023-08-21T15:06:55;32.10;23.90
21682;DHT22;11002;48.256;10.084;2023-08-21T15:09:23;32.10;22.20
21682;DHT22;11002;48.256;10.084;2023-08-21T15:11:50;32.00;22.40
21682;DHT22;11002;48.256;10.084;2023-08-21T15:14:18;31.90;22.90
21682;DHT22;11002;48.256;10.084;2023-08-21T15:16:46;31.90;23.20
21682;DHT22;11002;48.256;10.084;2023-08-21T15:19:13;31.90;24.70
21682;DHT22;11002;48.256;10.084;2023-08-21T15:21:40;31.80;24.90
21682;DHT22;11002;48.256;10.084;2023-08-21T15:24:07;31.80;25.60